Time;durP1;ratioP1;P1;durP2;ratioP2;P2;SDS_P1;SDS_P2;PMS_P1;PMS_P2;Temp;Humidity;BMP_temperature;BMP_pressure;BME280_temperature;BME280_humidity;BME280_pressure;Samples;Min_cycle;Max_cycle;Signal;HPM_P1;HPM_P2
2023/02/11 00:00:17;;;;;;;8.57;1.50;;;;;;;-142.37;nan;47441.34;5092703;28;20028;-55
2023/02/11 00:02:43;;;;;;;4.30;1.00;;;;;;;-142.37;nan;47443.38;5094600;28;20110;-55
2023/02/11 00:05:08;;;;;;;3.80;1.20;;;;;;;-142.37;nan;47424.97;5093087;28;20027;-55
2023/02/11 00:07:34;;;;;;;4.28;1.25;;;;;;;-142.37;nan;47424.97;5092919;28;20032;-55
2023/02/11 00:10:03;;;;;;;3.45;1.48;;;;;;;-142.37;nan;47424.97;5094097;28;20333;-56
2023/02/11 00:12:29;;;;;;;5.20;1.85;;;;;;;-142.37;nan;47392.22;5093626;28;20024;-56
2023/02/11 00:14:55;;;;;;;3.97;2.20;;;;;;;-142.37;nan;47392.22;5093886;28;20028;-55
2023/02/11 00:17:22;;;;;;;7.05;1.80;;;;;;;-142.37;nan;47392.22;5093816;28;20036;-55
2023/02/11 00:19:49;;;;;;;4.20;1.55;;;;;;;-142.37;nan;47392.22;5093478;28;20089;-56
2023/02/11 00:22:15;;;;;;;9.82;2.00;;;;;;;-142.37;nan;47392.22;5092161;28;20024;-55
2023/02/11 00:24:41;;;;;;;6.38;1.50;;;;;;;-142.37;nan;47392.00;5092304;28;20035;-56
2023/02/11 00:27:06;;;;;;;4.72;1.23;;;;;;;-142.37;100.00;59669.53;5093977;28;20027;-55
2023/02/11 00:29:32;;;;;;;8.35;1.70;;;;;;;-142.37;100.00;59669.53;5092405;28;20453;-55
2023/02/11 00:32:03;;;;;;;4.30;1.67;;;;;;;-142.37;100.00;59669.53;5093910;28;20125;-55
2023/02/11 00:34:33;;;;;;;4.60;1.60;;;;;;;-142.37;nan;47392.22;5091733;28;20506;-54
2023/02/11 00:36:58;;;;;;;10.63;2.00;;;;;;;-142.37;nan;47334.91;5091889;28;20480;-55
2023/02/11 00:39:24;;;;;;;7.68;1.83;;;;;;;-142.37;nan;47339.00;5092335;28;20031;-54
2023/02/11 00:41:50;;;;;;;7.35;1.92;;;;;;;-142.37;nan;47349.22;5093091;28;20040;-56
2023/02/11 00:44:16;;;;;;;9.80;2.05;;;;;;;-142.37;nan;47347.19;5093167;28;20032;-56
2023/02/11 00:46:42;;;;;;;4.75;1.88;;;;;;;-142.37;nan;47306.25;5093270;28;20036;-56
2023/02/11 00:49:07;;;;;;;5.32;2.20;;;;;;;-142.37;nan;47322.63;5092752;28;20348;-55
2023/02/11 00:51:33;;;;;;;6.75;3.20;;;;;;;-142.37;nan;47375.84;5092016;28;20024;-55
2023/02/11 00:53:59;;;;;;;7.55;2.25;;;;;;;-142.37;nan;47375.84;5092845;28;20110;-54
2023/02/11 00:56:25;;;;;;;7.78;2.80;;;;;;;-142.37;nan;47361.50;5092772;28;20095;-54
2023/02/11 00:58:52;;;;;;;10.25;3.47;;;;;;;-142.37;nan;47400.41;5093108;28;20032;-57
2023/02/11 01:01:17;;;;;;;14.32;2.78;;;;;;;-142.37;nan;47392.22;5092812;28;20024;-54
2023/02/11 01:03:43;;;;;;;12.25;3.90;;;;;;;-142.37;nan;47373.78;5092942;28;20507;-55
2023/02/11 01:06:09;;;;;;;11.27;3.10;;;;;;;-142.37;100.00;59669.53;5093209;28;20077;-55
2023/02/11 01:08:36;;;;;;;10.25;3.38;;;;;;;-142.37;100.00;59669.53;5091340;28;20036;-55
2023/02/11 01:11:05;;;;;;;12.80;3.58;;;;;;;-142.37;nan;47373.78;5091209;28;20114;-55
2023/02/11 01:13:33;;;;;;;16.52;3.72;;;;;;;-142.37;100.00;59669.53;5091279;28;20051;-56
2023/02/11 01:15:59;;;;;;;13.40;2.70;;;;;;;-142.37;nan;47373.78;5091532;28;20027;-56
2023/02/11 01:18:25;;;;;;;7.50;2.83;;;;;;;-142.37;nan;47373.78;5091458;28;20028;-55
2023/02/11 01:20:52;;;;;;;9.52;2.83;;;;;;;-142.37;nan;47373.78;5091547;28;20057;-55
2023/02/11 01:23:19;;;;;;;12.38;3.30;;;;;;;-142.37;100.00;59669.53;5091310;28;20086;-55
2023/02/11 01:25:45;;;;;;;11.43;3.88;;;;;;;-142.37;100.00;59669.53;5091476;28;20089;-54
2023/02/11 01:28:16;;;;;;;14.82;3.60;;;;;;;-142.37;100.00;59669.53;5091230;28;20123;-56
2023/02/11 01:30:42;;;;;;;8.88;3.22;;;;;;;-142.37;100.00;59669.53;5091337;28;20031;-56
2023/02/11 01:33:07;;;;;;;12.07;3.97;;;;;;;-142.37;100.00;59669.53;5092185;28;20028;-56
2023/02/11 01:35:33;;;;;;;5.57;2.38;;;;;;;-142.37;100.00;59669.53;5092875;28;20023;-56
2023/02/11 01:37:59;;;;;;;13.75;3.17;;;;;;;-142.37;100.00;59669.53;5092533;28;20043;-55
2023/02/11 01:40:24;;;;;;;9.40;3.60;;;;;;;-142.37;100.00;59669.53;5091241;28;20036;-55
2023/02/11 01:42:50;;;;;;;9.73;3.05;;;;;;;-142.37;100.00;59669.53;5091125;28;20028;-55
2023/02/11 01:45:45;;;;;;;6.95;2.88;;;;;;;-142.37;100.00;59669.53;5090798;28;20063;-56
2023/02/11 01:48:34;;;;;;;7.20;2.60;;;;;;;-142.37;100.00;59669.53;5090933;28;20411;-55
2023/02/11 01:51:07;;;;;;;6.95;2.67;;;;;;;-142.37;100.00;59669.53;5090900;28;20054;-56
2023/02/11 01:59:17;;;;;;;33.92;3.80;;;;;;;-142.37;100.00;59669.53;5092192;28;20039;-56
2023/02/11 02:01:49;;;;;;;10.45;3.17;;;;;;;-142.37;100.00;59669.53;5092422;28;20536;-56
2023/02/11 02:04:17;;;;;;;10.30;2.85;;;;;;;-142.37;100.00;59669.53;5092032;28;20102;-56
2023/02/11 02:06:50;;;;;;;8.10;2.65;;;;;;;-142.37;100.00;59669.53;5091165;28;20073;-55
2023/02/11 02:09:24;;;;;;;11.20;2.38;;;;;;;-142.37;100.00;59669.53;5090511;28;20028;-55
2023/02/11 02:11:50;;;;;;;9.35;2.08;;;;;;;-142.37;100.00;59669.53;5092145;28;20020;-54
2023/02/11 02:14:16;;;;;;;6.03;2.40;;;;;;;-142.37;100.00;59669.53;5090407;28;20087;-56
2023/02/11 02:16:43;;;;;;;10.82;2.75;;;;;;;-142.37;100.00;59669.53;5091952;28;20383;-55
2023/02/11 02:19:27;;;;;;;10.63;2.88;;;;;;;-142.37;100.00;59669.53;5091842;28;20028;-55
2023/02/11 02:21:53;;;;;;;9.20;2.28;;;;;;;-142.37;100.00;59669.53;5092102;28;20078;-56
2023/02/11 02:24:56;;;;;;;11.00;2.25;;;;;;;-142.37;100.00;59669.53;5090576;28;20028;-54
2023/02/11 02:27:34;;;;;;;8.02;2.35;;;;;;;-142.37;100.00;59669.53;5090958;28;20063;-56
2023/02/11 02:30:33;;;;;;;12.15;3.10;;;;;;;-142.37;100.00;59669.53;5091953;28;20395;-55
2023/02/11 02:33:44;;;;;;;8.52;3.00;;;;;;;-142.37;100.00;59669.53;5090347;28;20123;-55
2023/02/11 02:36:16;;;;;;;9.98;3.08;;;;;;;-142.37;100.00;59669.53;5071935;28;20039;-54
2023/02/11 02:39:03;;;;;;;9.77;3.03;;;;;;;-142.37;100.00;59669.53;5090550;28;20380;-55
2023/02/11 02:41:32;;;;;;;10.25;2.83;;;;;;;-142.37;100.00;59669.53;5090590;28;20024;-56
2023/02/11 02:43:58;;;;;;;9.50;3.17;;;;;;;-142.37;100.00;59669.53;5090370;28;20123;-56
2023/02/11 02:46:29;;;;;;;10.73;3.10;;;;;;;-142.37;100.00;59669.53;5091692;28;20521;-54
2023/02/11 02:48:56;;;;;;;8.00;2.63;;;;;;;-142.37;100.00;59669.53;5090543;28;20038;-55
2023/02/11 02:51:32;;;;;;;10.68;2.90;;;;;;;-142.37;100.00;59669.53;5091986;28;20096;-56
2023/02/11 02:54:19;;;;;;;10.35;3.60;;;;;;;-142.37;100.00;59669.53;5091797;28;20039;-55
2023/02/11 02:57:08;;;;;;;9.65;2.63;;;;;;;-142.37;nan;47373.78;5090360;28;20465;-54
2023/02/11 03:00:03;;;;;;;12.88;3.45;;;;;;;-142.37;nan;47373.78;5091081;28;20032;-56
2023/02/11 03:03:14;;;;;;;10.57;3.42;;;;;;;-48.76;nan;115258.88;5076665;28;20047;-55
2023/02/11 03:05:57;;;;;;;10.98;3.30;;;;;;;-142.37;nan;47373.78;5094353;28;20039;-55
2023/02/11 03:08:45;;;;;;;11.27;3.30;;;;;;;-142.37;nan;47373.78;5094414;28;20032;-56
2023/02/11 03:11:14;;;;;;;10.70;3.30;;;;;;;-142.37;nan;47373.78;5095561;28;20046;-56
2023/02/11 03:13:42;;;;;;;13.15;2.90;;;;;;;-142.37;nan;59669.53;5094991;28;20504;-56
2023/02/11 03:16:12;;;;;;;18.08;3.85;;;;;;;-142.37;nan;47373.78;5095574;28;20028;-55
2023/02/11 03:18:43;;;;;;;8.80;2.55;;;;;;;-142.37;100.00;59669.53;5094333;28;20035;-56
2023/02/11 03:21:11;;;;;;;14.43;3.97;;;;;;;-142.37;100.00;59669.53;5093536;28;20036;-55
2023/02/11 03:23:43;;;;;;;12.60;3.10;;;;;;;-142.37;100.00;59669.53;5093778;28;20036;-58
2023/02/11 03:26:20;;;;;;;8.30;2.58;;;;;;;-142.37;100.00;59669.53;5095356;28;20035;-54
2023/02/11 03:29:02;;;;;;;6.25;2.03;;;;;;;-142.37;100.00;59669.53;5093665;28;20035;-55
2023/02/11 03:31:41;;;;;;;7.13;2.40;;;;;;;-142.37;100.00;59669.53;5093695;28;20040;-54
2023/02/11 03:34:15;;;;;;;6.55;1.92;;;;;;;-142.37;100.00;59669.53;5094927;28;20062;-55
2023/02/11 03:36:50;;;;;;;2.20;1.00;;;;;;;-142.37;100.00;59669.53;5093880;28;20047;-55
2023/02/11 03:39:28;;;;;;;;;;;;;;;-142.37;100.00;59669.53;5093529;28;20472;-55
2023/02/11 03:41:57;;;;;;;3.92;0.60;;;;;;;-142.37;100.00;59669.53;5094489;28;20053;-55
2023/02/11 03:44:28;;;;;;;5.00;0.65;;;;;;;-142.37;100.00;59669.53;5094836;28;20047;-55
2023/02/11 03:46:54;;;;;;;3.70;0.57;;;;;;;-142.37;100.00;59669.53;5094637;28;20024;-55
2023/02/11 03:49:23;;;;;;;1.75;0.15;;;;;;;-142.37;100.00;59669.53;5093172;28;20276;-55
2023/02/11 03:51:51;;;;;;;5.85;0.93;;;;;;;-142.37;100.00;59669.53;5093425;28;20054;-55
2023/02/11 03:54:28;;;;;;;0.85;0.20;;;;;;;-142.37;100.00;59669.53;5094459;28;20031;-54
2023/02/11 03:56:58;;;;;;;1.58;0.60;;;;;;;-142.37;100.00;59669.53;5094748;28;20036;-54
2023/02/11 03:59:24;;;;;;;3.15;0.43;;;;;;;-142.37;100.00;59669.53;5094549;28;20387;-55
2023/02/11 04:01:50;;;;;;;4.78;0.30;;;;;;;-142.37;100.00;59669.53;5093202;28;20024;-54
2023/02/11 04:04:16;;;;;;;3.40;0.55;;;;;;;-142.37;100.00;59669.53;5094436;28;20111;-55
2023/02/11 04:06:42;;;;;;;0.55;0.10;;;;;;;-142.37;100.00;59669.53;5094334;28;20099;-53
2023/02/11 04:09:08;;;;;;;0.90;0.30;;;;;;;-142.37;nan;47373.78;5092731;28;20108;-55
2023/02/11 04:11:34;;;;;;;2.03;0.20;;;;;;;-142.37;nan;47339.00;5093090;28;20028;-54
2023/02/11 04:14:00;;;;;;;2.58;0.30;;;;;;;-142.37;nan;47357.41;5094300;28;20079;-55
2023/02/11 04:16:26;;;;;;;3.35;0.30;;;;;;;-142.37;nan;47379.94;5094258;28;20052;-55
2023/02/11 04:18:52;;;;;;;2.53;0.88;;;;;;;-142.37;nan;47371.75;5094151;28;20059;-54
2023/02/11 04:21:18;;;;;;;4.90;0.93;;;;;;;-142.37;nan;47310.34;5092647;28;20028;-55
2023/02/11 04:23:43;;;;;;;0.98;0.40;;;;;;;-142.37;nan;47339.00;5092638;28;20028;-55
2023/02/11 04:26:09;;;;;;;2.20;0.30;;;;;;;-142.37;nan;47318.53;5092869;28;20032;-55
2023/02/11 04:28:35;;;;;;;0.22;0.10;;;;;;;-142.37;nan;47318.53;5093946;28;20028;-54
2023/02/11 04:31:00;;;;;;;3.47;0.65;;;;;;;-142.37;nan;47322.63;5093811;28;20118;-56
2023/02/11 04:33:26;;;;;;;1.35;0.40;;;;;;;-142.37;nan;47322.63;5093596;28;20399;-56
2023/02/11 04:35:52;;;;;;;4.03;0.55;;;;;;;-142.37;nan;47322.63;5093812;28;20089;-56
2023/02/11 04:38:18;;;;;;;1.75;0.17;;;;;;;-142.37;nan;47310.34;5093782;28;20395;-57
2023/02/11 04:40:43;;;;;;;1.70;0.30;;;;;;;-142.37;nan;47328.75;5092698;28;20039;-57
2023/02/11 04:43:09;;;;;;;3.17;0.45;;;;;;;-142.37;nan;47316.47;5093261;28;20480;-56
2023/02/11 04:45:35;;;;;;;1.73;0.30;;;;;;;-142.37;nan;47312.38;5093707;28;20032;-58
2023/02/11 04:48:02;;;;;;;0.50;0.10;;;;;;;-142.37;nan;47285.78;5093891;28;20056;-58
2023/02/11 04:50:28;;;;;;;2.90;0.98;;;;;;;-142.37;nan;47285.78;5093528;28;20028;-57
2023/02/11 04:52:53;;;;;;;1.13;0.20;;;;;;;-142.37;nan;47302.16;5091986;28;20152;-57
2023/02/11 04:55:19;;;;;;;0.95;0.17;;;;;;;-142.37;nan;47273.50;5093099;28;20099;-57
2023/02/11 04:57:45;;;;;;;1.08;0.32;;;;;;;-142.37;nan;47281.69;5092173;28;20036;-59
2023/02/11 05:00:11;;;;;;;2.70;0.32;;;;;;;-142.37;nan;47298.06;5093378;28;20081;-59
2023/02/11 05:02:37;;;;;;;2.00;0.50;;;;;;;-142.37;nan;47304.19;5093571;28;20028;-60
2023/02/11 05:05:03;;;;;;;7.18;1.00;;;;;;;-142.37;nan;47318.53;5091612;28;20146;-59
2023/02/11 05:07:29;;;;;;;2.53;0.20;;;;;;;-142.37;nan;47277.59;5093044;28;20038;-59
2023/02/11 05:09:55;;;;;;;1.23;0.10;;;;;;;-142.37;nan;47277.59;5093427;28;20117;-58
2023/02/11 05:12:20;;;;;;;3.63;0.57;;;;;;;-142.37;nan;47306.25;5092843;28;20452;-58
2023/02/11 05:14:46;;;;;;;1.85;0.40;;;;;;;-142.37;nan;47318.53;5092908;28;20527;-58
2023/02/11 05:17:12;;;;;;;1.95;0.20;;;;;;;-142.37;nan;47298.06;5092739;28;20028;-58
2023/02/11 05:19:37;;;;;;;2.40;0.38;;;;;;;-142.37;nan;47306.25;5091590;28;20024;-57
2023/02/11 05:22:03;;;;;;;3.45;0.32;;;;;;;-142.37;nan;47259.16;5092587;28;20043;-58
2023/02/11 05:24:32;;;;;;;4.47;0.30;;;;;;;-142.37;nan;47259.16;5091372;28;20028;-58
2023/02/11 05:26:58;;;;;;;2.13;0.30;;;;;;;-142.37;nan;59669.53;5091328;28;20561;-57
2023/02/11 05:29:24;;;;;;;0.60;0.10;;;;;;;-142.37;nan;47259.16;5093013;28;20076;-59
2023/02/11 05:31:49;;;;;;;1.27;0.22;;;;;;;-142.37;nan;47259.16;5092826;28;20036;-59
2023/02/11 05:34:15;;;;;;;2.00;0.30;;;;;;;-142.37;nan;47261.22;5091178;28;20035;-58
2023/02/11 05:36:41;;;;;;;2.33;0.75;;;;;;;-142.37;100.00;59669.53;5091234;28;20024;-59
2023/02/11 05:39:07;;;;;;;0.77;0.10;;;;;;;-142.37;nan;47261.22;5092076;28;20357;-58
2023/02/11 05:41:33;;;;;;;4.22;0.65;;;;;;;-142.37;nan;47261.22;5091206;28;20028;-58
2023/02/11 05:43:58;;;;;;;2.75;0.52;;;;;;;-142.37;nan;47234.59;5091238;28;20035;-58
2023/02/11 05:46:24;;;;;;;1.15;0.20;;;;;;;-142.37;nan;47298.06;5092525;28;20028;-58
2023/02/11 05:48:50;;;;;;;4.70;0.63;;;;;;;-142.37;nan;47261.22;5091494;28;20024;-59
2023/02/11 05:51:15;;;;;;;1.48;0.32;;;;;;;-142.37;nan;47261.22;5091997;28;20036;-59
2023/02/11 05:53:41;;;;;;;1.95;0.30;;;;;;;-142.37;nan;47261.00;5092586;28;20032;-58
2023/02/11 05:56:07;;;;;;;2.35;0.50;;;;;;;-142.37;nan;47261.22;5091167;28;20032;-59
2023/02/11 05:58:32;;;;;;;0.93;0.25;;;;;;;-142.37;nan;47240.75;5090987;28;20048;-58
2023/02/11 06:00:58;;;;;;;3.63;0.38;;;;;;;-142.37;nan;47273.50;5092031;28;20024;-63
2023/02/11 06:03:24;;;;;;;1.70;0.30;;;;;;;-142.37;nan;47273.50;5092219;28;20050;-58
2023/02/11 06:05:49;;;;;;;4.05;0.40;;;;;;;-142.37;nan;47277.59;5090748;28;20032;-59
2023/02/11 06:08:15;;;;;;;3.30;0.43;;;;;;;-142.37;nan;47277.38;5091040;28;20107;-59
2023/02/11 06:10:44;;;;;;;2.78;0.82;;;;;;;-142.37;100.00;59669.53;5092247;28;20028;-60
2023/02/11 06:13:10;;;;;;;1.42;0.30;;;;;;;-142.37;100.00;59669.53;5091606;28;20079;-61
2023/02/11 06:15:35;;;;;;;2.95;0.70;;;;;;;-142.37;100.00;59669.53;5092420;28;20510;-60
2023/02/11 06:18:01;;;;;;;1.38;0.25;;;;;;;-142.37;nan;47277.59;5092264;28;20028;-60
2023/02/11 06:20:27;;;;;;;3.03;1.13;;;;;;;-142.37;nan;47277.59;5090760;28;20040;-60
2023/02/11 06:22:52;;;;;;;5.47;0.47;;;;;;;-142.37;nan;47277.59;5092419;28;20073;-60
2023/02/11 06:25:18;;;;;;;4.90;0.73;;;;;;;-142.37;nan;47248.94;5090552;28;20490;-60
2023/02/11 06:27:47;;;;;;;3.22;0.65;;;;;;;-142.37;nan;47230.50;5092065;28;20030;-61
2023/02/11 06:30:13;;;;;;;7.47;0.80;;;;;;;-142.37;nan;47187.53;5092101;28;20119;-61
2023/02/11 06:32:38;;;;;;;4.25;0.93;;;;;;;-142.37;nan;47246.88;5091118;28;20028;-60
2023/02/11 06:35:04;;;;;;;2.60;0.68;;;;;;;-142.37;nan;47240.75;5094048;28;20119;-60
2023/02/11 06:37:30;;;;;;;3.23;0.40;;;;;;;-142.37;nan;47240.75;5096733;28;20480;-60
2023/02/11 06:39:56;;;;;;;3.60;0.95;;;;;;;-142.37;nan;47326.72;5096209;28;20066;-61
2023/02/11 06:42:21;;;;;;;5.63;0.95;;;;;;;-142.37;100.00;47289.88;5097159;28;20032;-61
2023/02/11 06:44:47;;;;;;;7.45;0.90;;;;;;;-142.37;nan;47281.69;5097164;28;20020;-60
2023/02/11 06:47:13;;;;;;;3.60;0.65;;;;;;;-142.37;100.00;59669.53;5096219;28;20020;-59
2023/02/11 06:49:39;;;;;;;2.70;0.43;;;;;;;-142.37;100.00;59669.53;5095839;28;20369;-61
2023/02/11 06:52:04;;;;;;;5.03;0.45;;;;;;;-142.37;100.00;59669.53;5097625;28;20032;-60
2023/02/11 06:54:30;;;;;;;5.20;1.25;;;;;;;-142.37;100.00;59669.53;5095362;28;20123;-60
2023/02/11 06:56:56;;;;;;;2.15;0.65;;;;;;;-142.37;nan;47265.31;5096379;28;20036;-62
2023/02/11 06:59:21;;;;;;;4.13;0.60;;;;;;;-142.37;nan;47263.25;5094675;28;20024;-62
2023/02/11 07:01:47;;;;;;;4.45;0.70;;;;;;;-142.37;nan;47318.53;5096325;28;20016;-60
2023/02/11 07:04:16;;;;;;;6.35;0.60;;;;;;;-142.37;nan;47240.75;5094507;28;20114;-61
2023/02/11 07:06:41;;;;;;;10.88;1.55;;;;;;;-142.37;nan;47300.09;5096228;28;20475;-61
2023/02/11 07:09:07;;;;;;;4.88;1.00;;;;;;;-142.37;nan;47261.22;5095007;28;20119;-61
2023/02/11 07:11:33;;;;;;;3.45;0.77;;;;;;;-142.37;nan;47312.38;5095556;28;20031;-62
2023/02/11 07:14:02;;;;;;;3.63;1.05;;;;;;;-142.37;nan;47281.69;5096255;28;20523;-63
2023/02/11 07:16:28;;;;;;;5.35;1.15;;;;;;;-142.37;nan;47302.16;5096778;28;20081;-63
2023/02/11 07:18:54;;;;;;;3.05;0.77;;;;;;;-142.37;nan;47302.16;5095869;28;20028;-61
2023/02/11 07:21:23;;;;;;;1.65;0.40;;;;;;;-142.37;100.00;59669.53;5096987;28;20035;-65
2023/02/11 07:23:49;;;;;;;4.13;1.13;;;;;;;-142.37;nan;47334.91;5096027;28;20027;-62
2023/02/11 07:26:18;;;;;;;2.58;0.50;;;;;;;-142.37;nan;47232.56;5094691;28;20032;-62
2023/02/11 07:28:44;;;;;;;6.05;0.70;;;;;;;-142.37;nan;47285.78;5094968;28;20052;-61
2023/02/11 07:31:20;;;;;;;4.57;0.82;;;;;;;-142.37;nan;47281.69;5094848;28;20024;-60
2023/02/11 07:33:46;;;;;;;5.57;0.73;;;;;;;-142.37;nan;47261.22;5094730;28;20031;-64
2023/02/11 07:36:15;;;;;;;3.17;0.50;;;;;;;-142.37;nan;47261.22;5094562;28;20036;-60
2023/02/11 07:38:41;;;;;;;9.35;0.98;;;;;;;-142.37;nan;47228.47;5094314;28;20051;-59
2023/02/11 07:41:11;;;;;;;3.60;0.80;;;;;;;-142.37;nan;47265.31;5093724;28;20032;-58
2023/02/11 07:43:38;;;;;;;3.40;1.15;;;;;;;-142.37;nan;47257.13;5096435;28;20035;-57
2023/02/11 07:46:05;;;;;;;5.53;1.63;;;;;;;-142.37;nan;47289.88;5095304;28;20069;-57
2023/02/11 07:48:31;;;;;;;7.43;1.17;;;;;;;-142.37;nan;47289.88;5095304;28;20043;-57
2023/02/11 07:51:26;;;;;;;2.63;0.77;;;;;;;-142.37;nan;47289.88;5094927;28;20024;-58
2023/02/11 07:53:52;;;;;;;2.05;0.70;;;;;;;-142.37;nan;47289.88;5093725;28;20483;-56
2023/02/11 07:56:19;;;;;;;6.43;0.95;;;;;;;-142.37;nan;47289.88;5095031;28;20161;-57
2023/02/11 07:58:46;;;;;;;5.22;0.88;;;;;;;-142.37;nan;47289.88;5093561;28;20024;-57
2023/02/11 08:01:27;;;;;;;5.50;0.93;;;;;;;-142.37;nan;47257.13;5095130;28;20036;-58
2023/02/11 08:03:54;;;;;;;3.70;0.70;;;;;;;-142.37;nan;47257.13;5093341;28;20038;-58
2023/02/11 08:06:21;;;;;;;5.03;1.30;;;;;;;-142.37;nan;47257.13;5094569;28;20118;-59
2023/02/11 08:08:47;;;;;;;5.10;1.10;;;;;;;-142.37;nan;47261.22;5094813;28;20024;-56
2023/02/11 08:11:22;;;;;;;5.03;1.10;;;;;;;-142.37;nan;47330.81;5094246;28;20460;-58
2023/02/11 08:13:48;;;;;;;4.55;0.90;;;;;;;-142.37;nan;47330.81;5092797;28;20142;-59
2023/02/11 08:16:24;;;;;;;5.25;0.90;;;;;;;-142.37;nan;47347.19;5093042;28;20100;-60
2023/02/11 08:18:52;;;;;;;5.43;0.80;;;;;;;-142.37;nan;47326.72;5093066;28;20051;-60
2023/02/11 08:21:18;;;;;;;6.93;1.60;;;;;;;-142.37;nan;47269.41;5092481;28;20063;-58
2023/02/11 08:23:45;;;;;;;4.00;0.75;;;;;;;-142.37;nan;47302.16;5093002;28;20052;-57
2023/02/11 08:26:14;;;;;;;5.70;0.77;;;;;;;-142.37;nan;47310.34;5093950;28;20487;-59
2023/02/11 08:28:43;;;;;;;3.30;0.85;;;;;;;-142.37;nan;47318.53;5094117;28;20039;-59
2023/02/11 08:31:12;;;;;;;7.03;2.13;;;;;;;-142.37;nan;47296.00;5093823;28;20146;-59
2023/02/11 08:33:41;;;;;;;5.90;1.13;;;;;;;-142.37;nan;47293.97;5093745;28;20036;-58
2023/02/11 08:36:12;;;;;;;4.85;0.80;;;;;;;-142.37;nan;47265.31;5092812;28;20023;-58
2023/02/11 08:38:38;;;;;;;4.72;1.02;;;;;;;-142.37;nan;47269.41;5093955;28;20032;-59
2023/02/11 08:41:05;;;;;;;2.65;0.65;;;;;;;-142.37;nan;47291.91;5093617;28;20016;-58
2023/02/11 08:43:32;;;;;;;6.57;1.05;;;;;;;-142.37;nan;47285.78;5093457;28;20056;-59
2023/02/11 08:45:58;;;;;;;4.55;0.95;;;;;;;-142.37;nan;47273.50;5092159;28;20020;-59
2023/02/11 08:48:23;;;;;;;2.47;0.77;;;;;;;-142.37;nan;47234.59;5093404;28;20023;-57
2023/02/11 08:50:49;;;;;;;6.05;1.35;;;;;;;-142.37;nan;47279.63;5093811;28;20499;-58
2023/02/11 08:53:15;;;;;;;5.32;1.08;;;;;;;-142.37;nan;47289.88;5093227;28;20032;-60
2023/02/11 08:55:47;;;;;;;2.78;0.93;;;;;;;-142.37;nan;47302.16;5092264;28;20387;-58
2023/02/11 08:58:13;;;;;;;8.80;1.60;;;;;;;-142.37;nan;47310.34;5091353;28;20024;-60
2023/02/11 09:00:39;;;;;;;2.65;0.77;;;;;;;-142.37;nan;47314.44;5092084;28;20028;-58
2023/02/11 09:03:06;;;;;;;4.93;1.00;;;;;;;-142.37;nan;47302.16;5093283;28;20026;-59
2023/02/11 09:05:31;;;;;;;3.85;0.63;;;;;;;-142.37;nan;47293.97;5093950;28;20032;-59
2023/02/11 09:07:57;;;;;;;4.40;1.13;;;;;;;-142.37;nan;47281.69;5093393;28;20027;-60
2023/02/11 09:10:23;;;;;;;7.53;1.42;;;;;;;-142.37;nan;47281.69;5092113;28;20040;-60
2023/02/11 09:12:48;;;;;;;6.47;2.47;;;;;;;-142.37;nan;47289.88;5092487;28;20056;-60
2023/02/11 09:15:14;;;;;;;5.30;2.03;;;;;;;-142.37;nan;47287.81;5092717;28;20076;-60
2023/02/11 09:17:40;;;;;;;3.58;0.88;;;;;;;-142.37;nan;47267.34;5093179;28;20503;-61
2023/02/11 09:20:09;;;;;;;8.27;0.93;;;;;;;-142.37;nan;47277.59;5092819;28;20032;-59
2023/02/11 09:22:34;;;;;;;6.65;1.10;;;;;;;-142.37;nan;47314.44;5093062;28;20028;-60
2023/02/11 09:25:01;;;;;;;3.00;0.93;;;;;;;-142.37;nan;47265.31;5092598;28;20438;-59
2023/02/11 09:27:26;;;;;;;7.55;0.90;;;;;;;-142.37;nan;47293.97;5092193;28;20036;-58
2023/02/11 09:29:52;;;;;;;4.35;0.80;;;;;;;-142.37;nan;47296.00;5092151;28;20044;-61
2023/02/11 09:32:18;;;;;;;4.80;1.70;;;;;;;-142.37;nan;47236.66;5093287;28;20027;-60
2023/02/11 09:34:43;;;;;;;5.05;0.90;;;;;;;-142.37;nan;47285.78;5092827;28;20050;-60
2023/02/11 09:37:09;;;;;;;7.78;1.20;;;;;;;-142.37;nan;47285.78;5092805;28;20028;-61
2023/02/11 09:39:35;;;;;;;5.30;1.20;;;;;;;-142.37;nan;47261.22;5093084;28;20024;-60
2023/02/11 09:42:32;;;;;;;5.20;1.15;;;;;;;-142.37;nan;47263.25;5093728;28;20028;-60
2023/02/11 09:45:00;;;;;;;7.60;1.15;;;;;;;-142.37;nan;47248.94;5062179;28;20043;-60
2023/02/11 09:47:50;;;;;;;4.43;0.55;;;;;;;-142.37;nan;47244.84;5093109;28;20038;-61
2023/02/11 09:50:30;;;;;;;5.93;1.33;;;;;;;-142.37;nan;47267.34;5091405;28;20024;-61
2023/02/11 09:53:01;;;;;;;7.85;1.30;;;;;;;-142.37;nan;47298.06;5092274;28;20028;-60
2023/02/11 09:55:38;;;;;;;3.63;0.82;;;;;;;-142.37;nan;47269.41;5092264;28;20111;-61
2023/02/11 09:58:30;;;;;;;3.25;0.88;;;;;;;-142.37;nan;47240.75;5090507;28;20483;-61
2023/02/11 10:01:20;;;;;;;3.33;0.60;;;;;;;-142.37;nan;47210.03;5092039;28;20028;-60
2023/02/11 10:03:55;;;;;;;3.35;0.98;;;;;;;-142.37;nan;47236.66;5093042;28;20072;-60
2023/02/11 10:06:35;;;;;;;6.57;0.90;;;;;;;-142.37;nan;47275.53;5091258;28;20058;-61
2023/02/11 10:09:10;;;;;;;5.53;1.20;;;;;;;-142.37;nan;47277.59;5090549;28;20032;-62
2023/02/11 10:12:18;;;;;;;7.50;1.27;;;;;;;-142.37;nan;47283.72;5092044;28;20028;-61
2023/02/11 10:15:04;;;;;;;4.53;1.17;;;;;;;-142.37;nan;47328.75;5060049;28;20056;-60
2023/02/11 10:17:49;;;;;;;5.43;1.58;;;;;;;-142.37;nan;47283.72;5090895;28;20462;-60
2023/02/11 10:20:47;;;;;;;6.23;1.40;;;;;;;-142.37;nan;47244.84;5092333;28;20123;-62
2023/02/11 10:23:21;;;;;;;5.25;1.17;;;;;;;-142.37;nan;47339.00;5090804;28;20028;-61
2023/02/11 10:25:53;;;;;;;6.35;1.33;;;;;;;-142.37;nan;47267.34;5092218;28;20555;-61
2023/02/11 10:28:23;;;;;;;6.28;1.20;;;;;;;-142.37;nan;47263.25;5092139;28;20056;-61
2023/02/11 10:31:08;;;;;;;2.72;0.90;;;;;;;-142.37;nan;47234.59;5092249;28;20552;-65
2023/02/11 10:33:37;;;;;;;6.40;1.00;;;;;;;-142.37;nan;47343.09;5092073;28;20119;-62
2023/02/11 10:36:06;;;;;;;3.55;1.00;;;;;;;-142.37;nan;47293.97;5092362;28;20038;-60
2023/02/11 10:38:32;;;;;;;5.57;1.42;;;;;;;-142.37;nan;47390.16;5091629;28;20392;-62
2023/02/11 10:40:58;;;;;;;6.25;0.93;;;;;;;-142.37;nan;47318.53;5091522;28;20024;-59
2023/02/11 10:43:27;;;;;;;10.70;1.23;;;;;;;-142.37;nan;47310.34;5090177;28;20063;-60
2023/02/11 10:45:56;;;;;;;7.03;1.45;;;;;;;-142.37;nan;47355.38;5091733;28;20036;-61
2023/02/11 10:48:42;;;;;;;2.45;0.88;;;;;;;-142.37;nan;47371.75;5093339;28;20032;-61
2023/02/11 10:51:17;;;;;;;6.68;1.23;;;;;;;-142.37;nan;47326.72;5090182;28;20429;-61
2023/02/11 10:53:45;;;;;;;2.63;1.10;;;;;;;-142.37;nan;47273.50;5091904;28;20460;-61
2023/02/11 10:56:21;;;;;;;8.52;3.20;;;;;;;-142.37;nan;47275.53;5092210;28;20060;-59
2023/02/11 10:58:54;;;;;;;7.70;2.05;;;;;;;-142.37;nan;47341.03;5091692;28;20078;-61
2023/02/11 11:01:20;;;;;;;7.38;1.50;;;;;;;-142.37;nan;47355.38;5089854;28;20081;-61
2023/02/11 11:03:48;;;;;;;6.88;1.40;;;;;;;-142.37;nan;47353.31;5090365;28;20020;-58
2023/02/11 11:06:15;;;;;;;3.15;1.20;;;;;;;-142.37;nan;47343.09;5090278;28;20028;-61
2023/02/11 11:08:47;;;;;;;10.88;3.72;;;;;;;-142.37;nan;47277.59;5090129;28;20480;-61
2023/02/11 11:11:15;;;;;;;4.60;1.10;;;;;;;-142.37;nan;47302.16;5090505;28;20050;-59
2023/02/11 11:13:58;;;;;;;4.13;0.77;;;;;;;-142.37;nan;47293.97;5090916;28;20131;-61
2023/02/11 11:16:34;;;;;;;6.55;1.10;;;;;;;-142.37;nan;47248.94;5090408;28;20036;-61
2023/02/11 11:19:05;;;;;;;5.10;1.05;;;;;;;-142.37;nan;47287.81;5090407;28;20036;-60
2023/02/11 11:21:46;;;;;;;9.27;1.40;;;;;;;-142.37;nan;47326.72;5092414;28;20081;-61
2023/02/11 11:24:32;;;;;;;6.85;1.20;;;;;;;-142.37;nan;47306.25;5093893;28;20489;-59
2023/02/11 11:27:01;;;;;;;4.57;0.75;;;;;;;-142.37;nan;47267.34;5093682;28;20036;-58
2023/02/11 11:29:44;;;;;;;6.90;0.88;;;;;;;-142.37;nan;47277.59;5095073;28;20069;-59
2023/02/11 11:32:32;;;;;;;2.78;0.77;;;;;;;-142.37;nan;47334.91;5093769;28;20429;-60
2023/02/11 11:35:04;;;;;;;5.65;1.38;;;;;;;-142.37;nan;47298.06;5093217;28;20414;-60
2023/02/11 11:37:35;;;;;;;8.48;1.23;;;;;;;-142.37;nan;47343.09;5095238;28;20024;-61
2023/02/11 11:40:22;;;;;;;8.00;1.58;;;;;;;-142.37;nan;47322.63;5094669;28;20040;-62
2023/02/11 11:43:01;;;;;;;6.72;1.00;;;;;;;-142.37;nan;47279.63;5094342;28;20020;-61
2023/02/11 11:45:27;;;;;;;4.22;1.17;;;;;;;-142.37;nan;47277.59;5093034;28;20110;-58